Time;durP1;ratioP1;P1;durP2;ratioP2;P2;SDS_P1;SDS_P2;PMS_P1;PMS_P2;Temp;Humidity;BMP_temperature;BMP_pressure;BME280_temperature;BME280_humidity;BME280_pressure;Samples;Min_cycle;Max_cycle;Signal;HPM_P1;HPM_P2
2021/03/26 00:01:30;;;;;;;1999.90;999.90;;;;;;;7.19;72.84;98711.66;5058026;28;20381;-66
2021/03/26 00:03:58;;;;;;;1999.90;999.90;;;;;;;6.90;73.40;98707.06;5060750;28;20083;-66
2021/03/26 00:06:30;;;;;;;1999.90;999.90;;;;;;;6.84;73.75;98703.56;5064270;28;20043;-66
2021/03/26 00:08:56;;;;;;;;;;;;;;;6.74;74.09;98713.84;5062883;28;20406;-64
2021/03/26 00:11:25;;;;;;;1999.90;999.90;;;;;;;6.61;74.49;98716.19;5065464;28;19924;-64
2021/03/26 00:13:52;;;;;;;1999.90;999.90;;;;;;;6.50;75.36;98717.38;5059795;28;20052;-64
2021/03/26 00:16:20;;;;;;;1999.90;999.90;;;;;;;6.66;74.92;98724.38;5069911;28;20044;-65
2021/03/26 00:18:47;;;;;;;1999.90;999.90;;;;;;;6.72;74.29;98716.09;5065088;28;20048;-65
2021/03/26 00:21:15;;;;;;;1999.90;999.90;;;;;;;6.58;74.61;98716.78;5070526;28;20045;-65
2021/03/26 00:23:41;;;;;;;1999.90;999.90;;;;;;;6.70;74.16;98713.63;5069233;28;20044;-65
2021/03/26 00:26:10;;;;;;;1999.90;999.90;;;;;;;6.85;74.06;98720.88;5060659;28;20052;-65
2021/03/26 00:28:37;;;;;;;1999.90;999.90;;;;;;;6.88;73.67;98714.81;5069334;28;20045;-65
2021/03/26 00:31:05;;;;;;;1999.90;999.90;;;;;;;6.95;73.60;98726.28;5065910;28;20419;-65
2021/03/26 00:33:31;;;;;;;1999.90;999.90;;;;;;;6.70;73.79;98714.44;5069700;28;20044;-65
2021/03/26 00:35:58;;;;;;;1999.90;999.90;;;;;;;6.76;73.98;98711.63;5066772;28;20040;-65
2021/03/26 00:38:25;;;;;;;1999.90;999.90;;;;;;;6.76;74.09;98717.97;5056270;28;20098;-65
2021/03/26 00:40:52;;;;;;;1999.90;999.90;;;;;;;6.85;73.81;98710.69;5069539;28;20058;-65
2021/03/26 00:43:19;;;;;;;1999.90;999.90;;;;;;;6.76;73.94;98708.88;5068208;28;20056;-65
2021/03/26 00:45:46;;;;;;;1999.90;999.90;;;;;;;6.69;74.17;98699.03;5070196;28;20222;-65
2021/03/26 00:48:13;;;;;;;1999.90;999.90;;;;;;;6.72;74.23;98705.09;5067651;28;20079;-65
2021/03/26 00:50:43;;;;;;;1999.90;999.90;;;;;;;6.78;74.09;98698.41;5064852;28;20051;-65
2021/03/26 00:53:13;;;;;;;1999.90;999.90;;;;;;;6.81;73.94;98706.09;5060790;28;20561;-65
2021/03/26 00:55:39;;;;;;;1999.90;999.90;;;;;;;6.92;73.50;98699.34;5064711;28;20076;-65
2021/03/26 00:58:06;;;;;;;1999.90;999.90;;;;;;;6.82;73.85;98696.75;5069042;28;20045;-65
2021/03/26 01:00:33;;;;;;;1999.90;999.90;;;;;;;7.04;73.21;98697.00;5067539;28;20048;-65
2021/03/26 01:02:59;;;;;;;1999.90;999.90;;;;;;;7.12;72.99;98698.28;5062013;28;20049;-65
2021/03/26 01:05:33;;;;;;;1999.90;999.90;;;;;;;7.13;72.91;98693.59;5060814;28;20052;-65
2021/03/26 01:08:00;;;;;;;1999.90;999.90;;;;;;;7.11;73.05;98696.63;5065487;28;20103;-65
2021/03/26 01:10:33;;;;;;;1999.90;999.90;;;;;;;6.97;73.81;98696.53;5066510;28;20074;-65
2021/03/26 01:13:00;;;;;;;1999.90;999.90;;;;;;;6.96;73.58;98689.41;5064114;28;20113;-65
2021/03/26 01:15:28;;;;;;;1999.90;999.90;;;;;;;7.07;73.14;98689.28;5068507;28;20430;-65
2021/03/26 01:17:56;;;;;;;1999.90;999.90;;;;;;;6.93;73.85;98692.75;5062857;28;20040;-65
2021/03/26 01:20:27;;;;;;;1999.90;999.90;;;;;;;6.88;74.05;98690.88;5069788;28;20053;-65
2021/03/26 01:22:53;;;;;;;1999.90;999.90;;;;;;;6.75;74.43;98693.50;5066422;28;20055;-65
2021/03/26 01:25:24;;;;;;;1999.90;999.90;;;;;;;6.95;73.67;98684.19;5064792;28;20056;-65
2021/03/26 01:27:50;;;;;;;1999.90;999.90;;;;;;;6.83;73.59;98692.84;5068671;28;20173;-65
2021/03/26 01:30:20;;;;;;;1999.90;999.90;;;;;;;6.90;73.26;98690.56;5062904;28;20048;-65
2021/03/26 01:32:46;;;;;;;1999.90;999.90;;;;;;;6.85;73.24;98693.41;5069028;28;20102;-65
2021/03/26 01:35:13;;;;;;;1999.90;999.90;;;;;;;6.79;73.34;98700.88;5063351;28;20048;-65
2021/03/26 01:37:39;;;;;;;1999.90;999.90;;;;;;;6.70;73.66;98703.44;5066273;28;20049;-65
2021/03/26 01:40:08;;;;;;;1999.90;999.90;;;;;;;6.67;74.09;98697.72;5064602;28;20495;-65
2021/03/26 01:42:37;;;;;;;1999.90;999.90;;;;;;;6.87;73.13;98696.66;5062758;28;20052;-65
2021/03/26 01:45:17;;;;;;;1999.90;999.90;;;;;;;6.75;73.32;98690.75;5068663;28;20053;-65
2021/03/26 01:47:44;;;;;;;1999.90;999.90;;;;;;;6.81;73.31;98693.16;5062783;28;20041;-65
2021/03/26 01:50:14;;;;;;;1999.90;999.90;;;;;;;6.68;73.59;98693.84;5060636;28;20056;-65
2021/03/26 01:52:40;;;;;;;1999.90;999.90;;;;;;;6.73;73.44;98693.81;5066468;28;20557;-65
2021/03/26 01:55:09;;;;;;;1999.90;999.90;;;;;;;6.78;73.32;98698.41;5069204;28;20114;-65
2021/03/26 01:57:36;;;;;;;1999.90;999.90;;;;;;;6.61;73.84;98705.19;5067772;28;20563;-65
2021/03/26 02:00:35;;;;;;;1999.90;999.90;;;;;;;6.82;73.03;98713.22;5061782;28;20052;-65
2021/03/26 02:03:04;;;;;;;;;;;;;;;6.67;73.07;98711.47;5063492;28;20060;-65
2021/03/26 02:05:31;;;;;;;1999.90;999.90;;;;;;;6.54;73.90;98707.47;5063367;28;20379;-65
2021/03/26 02:07:58;;;;;;;1999.90;999.90;;;;;;;6.38;74.42;98697.75;5063721;28;20087;-65
2021/03/26 02:10:24;;;;;;;1999.90;999.90;;;;;;;6.49;74.10;98699.25;5066088;28;20052;-65
2021/03/26 02:13:00;;;;;;;1999.90;999.90;;;;;;;6.49;74.21;98702.00;5061863;28;20049;-65
2021/03/26 02:15:33;;;;;;;1999.90;999.90;;;;;;;6.35;74.65;98699.94;5061169;28;20495;-65
2021/03/26 02:18:00;;;;;;;1999.90;999.90;;;;;;;6.27;75.16;98703.31;5063532;28;20045;-65
2021/03/26 02:20:32;;;;;;;1999.90;999.90;;;;;;;6.39;74.87;98707.63;5064487;28;20060;-65
2021/03/26 02:23:26;;;;;;;1999.90;999.90;;;;;;;6.42;75.14;98715.28;5065409;28;20480;-65
2021/03/26 02:25:54;;;;;;;1999.90;999.90;;;;;;;6.43;74.54;98705.91;5063547;28;20102;-65
2021/03/26 02:28:21;;;;;;;1999.90;999.90;;;;;;;6.06;75.70;98710.94;5066843;28;20135;-65
2021/03/26 02:30:55;;;;;;;1999.90;999.90;;;;;;;5.98;76.42;98706.88;5062965;28;20053;-65
2021/03/26 02:33:22;;;;;;;1999.90;999.90;;;;;;;6.09;76.08;98706.75;5065731;28;20106;-65
2021/03/26 02:36:10;;;;;;;1999.90;999.90;;;;;;;6.19;75.89;98706.69;5065727;28;20412;-65
2021/03/26 02:38:36;;;;;;;1999.90;999.90;;;;;;;6.08;76.10;98713.38;5064975;28;20439;-65
2021/03/26 02:41:15;;;;;;;1999.90;999.90;;;;;;;6.12;76.14;98708.97;5063314;28;20047;-65
2021/03/26 02:43:51;;;;;;;1999.90;999.90;;;;;;;6.05;76.42;98708.47;5068056;28;20051;-65
2021/03/26 02:46:24;;;;;;;1999.90;999.90;;;;;;;6.06;77.10;98723.81;5055467;28;20044;-65
2021/03/26 02:49:23;;;;;;;1999.90;999.90;;;;;;;6.25;76.34;98719.28;5067748;28;20040;-65
2021/03/26 02:51:59;;;;;;;1999.90;999.90;;;;;;;6.32;76.30;98719.75;5058458;28;20412;-65
2021/03/26 02:54:40;;;;;;;1999.90;999.90;;;;;;;6.23;76.22;98716.00;5065480;28;20060;-65
2021/03/26 02:57:13;;;;;;;1999.90;999.90;;;;;;;6.48;75.84;98711.38;5062709;28;20044;-65
2021/03/26 03:00:13;;;;;;;1999.90;999.90;;;;;;;6.58;75.78;98718.69;5061130;28;20049;-65
2021/03/26 03:02:43;;;;;;;1999.90;999.90;;;;;;;6.53;75.44;98725.06;5057844;28;20048;-65
2021/03/26 03:05:45;;;;;;;1999.90;999.90;;;;;;;6.74;75.09;98719.34;5062521;28;20053;-65
2021/03/26 03:08:27;;;;;;;1999.90;999.90;;;;;;;6.57;75.45;98723.38;5055650;28;20286;-65
2021/03/26 03:10:55;;;;;;;1999.90;999.90;;;;;;;6.41;76.29;98732.88;5065747;28;20097;-65
2021/03/26 03:13:30;;;;;;;1999.90;999.90;;;;;;;6.03;76.96;98727.13;5056875;28;20056;-65
2021/03/26 03:16:01;;;;;;;1999.90;999.90;;;;;;;6.17;76.97;98728.13;5062597;28;20041;-65
2021/03/26 03:18:33;;;;;;;1999.90;999.90;;;;;;;6.29;76.67;98723.06;5065649;28;20048;-65
2021/03/26 03:21:25;;;;;;;1999.90;999.90;;;;;;;6.06;77.19;98723.81;5066683;28;20106;-65
2021/03/26 03:24:01;;;;;;;1999.90;999.90;;;;;;;6.04;77.37;98728.78;5067270;28;20056;-65
2021/03/26 03:26:46;;;;;;;1999.90;999.90;;;;;;;6.22;76.75;98722.59;5059622;28;20044;-65
2021/03/26 03:29:12;;;;;;;1999.90;999.90;;;;;;;6.33;76.48;98723.34;5054041;28;20099;-65
2021/03/26 03:31:49;;;;;;;1999.90;999.90;;;;;;;6.41;76.06;98722.69;5063822;28;21650;-65
2021/03/26 03:34:31;;;;;;;1999.90;999.90;;;;;;;6.21;76.79;98722.88;5057051;28;20051;-65
2021/03/26 03:37:04;;;;;;;1999.90;999.90;;;;;;;6.33;76.65;98732.38;5059954;28;20052;-65
2021/03/26 03:39:47;;;;;;;1999.90;999.90;;;;;;;6.09;76.56;98726.00;5062465;28;20483;-65
2021/03/26 03:42:27;;;;;;;1999.90;999.90;;;;;;;6.05;77.55;98730.44;5061982;28;20036;-64
2021/03/26 03:45:05;;;;;;;1999.90;999.90;;;;;;;6.28;76.46;98726.94;5066668;28;20529;-65
2021/03/26 03:47:38;;;;;;;1999.90;999.90;;;;;;;6.01;77.63;98729.34;5060651;28;20040;-65
2021/03/26 03:50:18;;;;;;;1999.90;999.90;;;;;;;6.22;76.98;98730.00;5062377;28;20334;-65
2021/03/26 03:52:53;;;;;;;1999.90;999.90;;;;;;;5.97;77.91;98723.63;5063825;28;20113;-65
2021/03/26 03:55:28;;;;;;;1999.90;999.90;;;;;;;6.06;77.42;98718.31;5059582;28;20044;-65
2021/03/26 03:58:12;;;;;;;1999.90;999.90;;;;;;;6.34;76.09;98717.56;5063439;28;20036;-65
2021/03/26 04:00:45;;;;;;;1999.90;999.90;;;;;;;6.31;75.75;98723.63;5056852;28;20110;-65
2021/03/26 04:03:27;;;;;;;1999.90;999.90;;;;;;;6.13;76.81;98716.91;5057246;28;20068;-65
2021/03/26 04:05:57;;;;;;;1999.90;999.90;;;;;;;6.28;76.53;98720.63;5065433;28;20487;-65
2021/03/26 04:08:37;;;;;;;1999.90;999.90;;;;;;;6.39;75.58;98730.41;5061948;28;20059;-65
2021/03/26 04:11:14;;;;;;;1999.90;999.90;;;;;;;6.30;75.62;98721.97;5062954;28;20052;-65
2021/03/26 04:14:06;;;;;;;1999.90;999.90;;;;;;;6.24;75.81;98723.13;5063751;28;20118;-65
2021/03/26 04:16:32;;;;;;;1999.90;999.90;;;;;;;6.08;76.35;98727.13;5056391;28;20098;-65
2021/03/26 04:19:24;;;;;;;1999.90;999.90;;;;;;;6.02;76.47;98723.59;5060155;28;20048;-65
2021/03/26 04:21:56;;;;;;;1999.90;999.90;;;;;;;5.92;76.78;98727.19;5060520;28;20041;-65
2021/03/26 04:24:28;;;;;;;1999.90;999.90;;;;;;;6.02;76.67;98725.53;5066227;28;20102;-65
2021/03/26 04:27:12;;;;;;;1999.90;999.90;;;;;;;6.26;75.59;98728.34;5065780;28;20049;-65
2021/03/26 04:29:42;;;;;;;1999.90;999.90;;;;;;;6.02;76.37;98725.53;5053932;28;20045;-65
2021/03/26 04:32:21;;;;;;;1999.90;999.90;;;;;;;6.03;76.29;98727.13;5063363;28;20073;-66
2021/03/26 04:34:50;;;;;;;1999.90;999.90;;;;;;;6.02;76.33;98726.31;5063684;28;20484;-66
2021/03/26 04:37:42;;;;;;;1999.90;999.90;;;;;;;6.04;76.23;98720.53;5060184;28;20072;-66
2021/03/26 04:40:10;;;;;;;1999.90;999.90;;;;;;;6.11;75.82;98724.59;5064453;28;20591;-66
2021/03/26 04:43:02;;;;;;;1999.90;999.90;;;;;;;5.86;76.79;98722.84;5065526;28;20094;-65
2021/03/26 04:45:51;;;;;;;1999.90;999.90;;;;;;;5.79;76.90;98716.84;5065053;28;20049;-65
2021/03/26 04:48:34;;;;;;;1999.90;999.90;;;;;;;5.78;77.08;98720.72;5064218;28;20122;-66
2021/03/26 04:51:22;;;;;;;1999.90;999.90;;;;;;;5.74;77.31;98720.44;5054600;28;20136;-65
2021/03/26 04:53:51;;;;;;;1999.90;999.90;;;;;;;5.70;77.48;98724.06;5061691;28;20407;-65
2021/03/26 04:56:24;;;;;;;1999.90;999.90;;;;;;;5.55;78.00;98725.81;5058688;28;20442;-65
2021/03/26 04:58:58;;;;;;;1999.90;999.90;;;;;;;5.78;77.22;98731.69;5062141;28;20076;-66
2021/03/26 05:01:30;;;;;;;1999.90;999.90;;;;;;;5.74;77.17;98731.44;5065354;28;20051;-66
2021/03/26 05:04:06;;;;;;;1999.90;999.90;;;;;;;5.91;76.87;98724.72;5066068;28;20491;-65
2021/03/26 05:06:39;;;;;;;1999.90;999.90;;;;;;;5.90;76.96;98732.16;5057362;28;20407;-65
2021/03/26 05:09:09;;;;;;;1999.90;999.90;;;;;;;5.75;77.34;98732.25;5060513;28;20147;-65
2021/03/26 05:11:42;;;;;;;1999.90;999.90;;;;;;;5.29;79.02;98731.41;5066055;28;20060;-65
2021/03/26 05:14:14;;;;;;;1999.90;999.90;;;;;;;5.62;78.05;98733.72;5063604;28;20454;-65
2021/03/26 05:16:51;;;;;;;1999.90;999.90;;;;;;;5.79;77.46;98730.56;5061694;28;20801;-65
2021/03/26 05:19:36;;;;;;;1999.90;999.90;;;;;;;5.87;77.35;98742.88;5063437;28;20250;-65
2021/03/26 05:22:18;;;;;;;1999.90;999.90;;;;;;;5.86;77.03;98750.28;5061787;28;20088;-66
2021/03/26 05:24:50;;;;;;;;;;;;;;;5.77;77.38;98752.00;5063592;28;20452;-66
2021/03/26 05:27:17;;;;;;;1999.90;999.90;;;;;;;5.67;77.45;98747.38;5064132;28;19947;-66
2021/03/26 05:29:44;;;;;;;1999.90;999.90;;;;;;;5.51;78.45;98756.81;5063753;28;20387;-65
2021/03/26 05:32:15;;;;;;;1999.90;999.90;;;;;;;5.62;78.30;98755.66;5065199;28;20064;-65
2021/03/26 05:35:01;;;;;;;1999.90;999.90;;;;;;;5.74;78.13;98760.81;5061508;28;20144;-66
2021/03/26 05:37:35;;;;;;;1999.90;999.90;;;;;;;5.69;78.46;98763.59;5063719;28;20048;-65
2021/03/26 05:40:20;;;;;;;1999.90;999.90;;;;;;;5.78;78.28;98759.13;5061727;28;20541;-66
2021/03/26 05:43:15;;;;;;;1999.90;999.90;;;;;;;5.78;78.69;98757.19;5064615;28;20544;-66
2021/03/26 05:46:33;;;;;;;1999.90;999.90;;;;;;;5.98;78.09;98758.19;5041239;28;20052;-66
2021/03/26 05:49:26;;;;;;;1999.90;999.90;;;;;;;5.92;78.49;98754.63;5048684;28;20053;-65
2021/03/26 05:52:30;;;;;;;1999.90;999.90;;;;;;;6.24;77.74;98758.84;5058241;28;20248;-65
2021/03/26 05:55:08;;;;;;;1999.90;999.90;;;;;;;6.46;76.52;98763.03;5056905;28;20045;-66
2021/03/26 05:57:52;;;;;;;1999.90;999.90;;;;;;;6.39;76.96;98762.56;5062653;28;20109;-65
2021/03/26 06:01:07;;;;;;;1999.90;999.90;;;;;;;6.81;75.80;98763.81;5060594;28;20079;-66
2021/03/26 06:03:49;;;;;;;1999.90;999.90;;;;;;;6.65;75.83;98760.38;5045532;28;20123;-66
2021/03/26 06:06:53;;;;;;;1999.90;999.90;;;;;;;6.88;75.11;98759.59;5065107;28;21692;-66
2021/03/26 06:09:37;;;;;;;1999.90;999.90;;;;;;;6.90;75.17;98753.00;5059742;28;20690;-65
2021/03/26 06:12:22;;;;;;;1999.90;999.90;;;;;;;7.19;74.71;98763.91;5059241;28;20495;-65
2021/03/26 06:15:01;;;;;;;1999.90;999.90;;;;;;;7.10;74.30;98760.19;5062597;28;20133;-66
2021/03/26 06:17:52;;;;;;;1999.90;999.90;;;;;;;7.34;73.84;98761.00;5056534;28;20041;-65
2021/03/26 06:20:24;;;;;;;1999.90;999.90;;;;;;;7.64;73.70;98758.97;5063236;28;20048;-65
2021/03/26 06:23:24;;;;;;;1999.90;999.90;;;;;;;7.36;74.25;98761.53;5068898;28;20121;-64
2021/03/26 06:26:34;;;;;;;1999.90;999.90;;;;;;;7.59;73.44;98761.78;5062269;28;20079;-65
2021/03/26 06:29:15;;;;;;;1999.90;999.90;;;;;;;7.00;75.50;98767.44;5052605;28;20053;-65
2021/03/26 06:32:00;;;;;;;1999.90;999.90;;;;;;;7.66;73.64;98764.97;5062056;28;20053;-65
2021/03/26 06:34:32;;;;;;;1999.90;999.90;;;;;;;8.07;72.51;98767.16;5056450;28;20140;-66
2021/03/26 06:37:13;;;;;;;;;;;;;;;8.13;72.11;98759.63;5064529;28;20056;-65
2021/03/26 06:39:48;;;;;;;1999.90;999.90;;;;;;;7.99;71.92;98762.31;5059853;28;19928;-66
2021/03/26 06:42:38;;;;;;;1999.90;999.90;;;;;;;8.27;71.71;98762.44;5050096;28;20057;-64
2021/03/26 06:46:01;;;;;;;1999.90;999.90;;;;;;;8.09;71.86;98758.59;5063785;28;20048;-65
2021/03/26 06:48:38;;;;;;;1999.90;999.90;;;;;;;8.23;71.25;98767.75;5038920;28;20049;-65
2021/03/26 06:51:26;;;;;;;1999.90;999.90;;;;;;;8.39;70.70;98776.56;5050530;28;20083;-64
2021/03/26 06:54:11;;;;;;;1999.90;999.90;;;;;;;9.08;69.62;98781.44;5048232;28;20053;-64
2021/03/26 06:56:52;;;;;;;1999.90;999.90;;;;;;;8.78;69.26;98772.63;5057797;28;20410;-65
2021/03/26 06:59:41;;;;;;;1999.90;999.90;;;;;;;9.17;68.84;98776.03;5053481;28;20053;-64
2021/03/26 07:02:44;;;;;;;1999.90;999.90;;;;;;;9.42;68.43;98777.44;5063088;28;20514;-64
2021/03/26 07:05:13;;;;;;;1999.90;999.90;;;;;;;9.59;68.06;98767.75;5061168;28;20060;-65
2021/03/26 07:07:45;;;;;;;1999.90;999.90;;;;;;;9.41;68.27;98775.81;5060406;28;20041;-64
2021/03/26 07:10:12;;;;;;;1999.90;999.90;;;;;;;9.39;68.00;98769.78;5062770;28;20056;-65
2021/03/26 07:13:12;;;;;;;1999.90;999.90;;;;;;;9.80;66.99;98763.38;5059165;28;20048;-65
2021/03/26 07:16:03;;;;;;;1999.90;999.90;;;;;;;10.02;65.92;98767.34;5063090;28;20048;-64
2021/03/26 07:18:57;;;;;;;1999.90;999.90;;;;;;;9.97;65.75;98767.44;5061089;28;20055;-65
2021/03/26 07:21:58;;;;;;;1999.90;999.90;;;;;;;10.02;65.33;98768.16;5053788;28;20098;-65
2021/03/26 07:24:43;;;;;;;1999.90;999.90;;;;;;;9.97;65.17;98768.25;5057496;28;20311;-65
2021/03/26 07:27:20;;;;;;;1999.90;999.90;;;;;;;10.20;65.01;98771.88;5061313;28;20056;-65
2021/03/26 07:29:51;;;;;;;1999.90;999.90;;;;;;;10.51;64.24;98764.78;5055048;28;20048;-65
2021/03/26 07:32:23;;;;;;;1999.90;999.90;;;;;;;10.63;63.28;98769.75;5055290;28;20056;-65
2021/03/26 07:35:26;;;;;;;1999.90;999.90;;;;;;;10.96;63.03;98777.75;5055772;28;20052;-65
2021/03/26 07:38:05;;;;;;;1999.90;999.90;;;;;;;10.39;63.72;98782.78;5053595;28;20466;-64
2021/03/26 07:40:38;;;;;;;1999.90;999.90;;;;;;;10.63;63.73;98783.56;5063243;28;20397;-65
2021/03/26 07:43:04;;;;;;;1999.90;999.90;;;;;;;10.38;64.20;98785.84;5056789;28;20048;-65
2021/03/26 07:46:15;;;;;;;1999.90;999.90;;;;;;;10.17;65.07;98783.53;5060323;28;20567;-65
2021/03/26 07:49:07;;;;;;;1999.90;999.90;;;;;;;10.72;63.67;98784.47;5058373;28;20057;-65
2021/03/26 07:51:41;;;;;;;1999.90;999.90;;;;;;;10.89;62.80;98779.00;5055978;28;20051;-65
2021/03/26 07:54:22;;;;;;;1999.90;999.90;;;;;;;11.14;61.82;98776.69;5059627;28;20140;-65
2021/03/26 07:57:23;;;;;;;1999.90;999.90;;;;;;;11.39;62.13;98777.13;5057157;28;20518;-65
2021/03/26 08:00:02;;;;;;;1999.90;999.90;;;;;;;11.96;60.61;98784.59;5053736;28;20060;-65
2021/03/26 08:02:32;;;;;;;1999.90;999.90;;;;;;;12.30;59.77;98774.69;5061999;28;20056;-65
2021/03/26 08:05:05;;;;;;;1999.90;999.90;;;;;;;12.00;60.45;98779.22;5059253;28;20049;-65
2021/03/26 08:07:52;;;;;;;1999.90;999.90;;;;;;;12.92;57.92;98775.38;5053372;28;20053;-65
2021/03/26 08:10:35;;;;;;;1999.90;999.90;;;;;;;12.86;57.30;98774.75;5062489;28;20644;-65
2021/03/26 08:13:09;;;;;;;1999.90;999.90;;;;;;;12.72;57.91;98790.78;5057847;28;20048;-65
2021/03/26 08:15:50;;;;;;;1999.90;999.90;;;;;;;12.84;57.96;98786.16;5062980;28;20098;-65
2021/03/26 08:18:54;;;;;;;1999.90;999.90;;;;;;;13.01;57.37;98782.53;5061366;28;20049;-65
2021/03/26 08:21:26;;;;;;;1999.90;999.90;;;;;;;13.30;57.45;98788.50;5054430;28;20486;-65
2021/03/26 08:24:07;;;;;;;1999.90;999.90;;;;;;;13.66;56.67;98792.75;5061406;28;20060;-65
2021/03/26 08:27:06;;;;;;;1999.90;999.90;;;;;;;13.88;55.05;98791.66;5061395;28;20049;-65
2021/03/26 08:29:45;;;;;;;1999.90;999.90;;;;;;;14.16;54.43;98800.28;5051112;28;20047;-65
2021/03/26 08:32:54;;;;;;;1999.90;999.90;;;;;;;13.52;56.15;98796.59;5063016;28;20084;-65
2021/03/26 08:35:40;;;;;;;1999.90;999.90;;;;;;;14.51;54.43;98790.81;5056860;28;20045;-65
2021/03/26 08:38:41;;;;;;;1999.90;999.90;;;;;;;14.14;55.00;98802.56;5059774;28;20049;-65
2021/03/26 08:41:25;;;;;;;1999.90;999.90;;;;;;;14.46;53.98;98800.19;5064084;28;20082;-65
2021/03/26 08:43:54;;;;;;;1999.90;999.90;;;;;;;14.66;53.63;98793.00;5061631;28;20177;-65
2021/03/26 08:46:33;;;;;;;1999.90;999.90;;;;;;;14.66;53.18;98798.56;5066582;28;20145;-65
2021/03/26 08:49:24;;;;;;;1999.90;999.90;;;;;;;15.10;52.32;98798.94;5066899;28;20374;-65
2021/03/26 08:52:22;;;;;;;1999.90;999.90;;;;;;;15.32;51.11;98796.88;5060058;28;20436;-65
2021/03/26 08:55:01;;;;;;;1999.90;999.90;;;;;;;15.44;52.01;98799.69;5058305;28;20832;-65
2021/03/26 08:57:37;;;;;;;1999.90;999.90;;;;;;;16.10;51.26;98797.00;5066137;28;20044;-65
2021/03/26 09:00:32;;;;;;;1999.90;999.90;;;;;;;16.09;48.54;98798.97;5063935;28;20124;-65
2021/03/26 09:03:28;;;;;;;1999.90;999.90;;;;;;;14.97;51.25;98797.28;5060455;28;20063;-65
2021/03/26 09:06:35;;;;;;;1999.90;999.90;;;;;;;14.57;52.75;98800.59;5060669;28;20045;-65
2021/03/26 09:09:17;;;;;;;1999.90;999.90;;;;;;;14.79;52.50;98803.00;5063008;28;20094;-65
2021/03/26 09:12:01;;;;;;;1999.90;999.90;;;;;;;14.64;52.51;98805.66;5061078;28;20575;-65
2021/03/26 09:14:54;;;;;;;1999.90;999.90;;;;;;;15.31;50.48;98807.19;5064976;28;20056;-66
2021/03/26 09:17:27;;;;;;;1999.90;999.90;;;;;;;15.16;50.32;98809.88;5061507;28;20044;-65
2021/03/26 09:19:58;;;;;;;1999.90;999.90;;;;;;;15.63;49.71;98812.22;5065272;28;20059;-65
2021/03/26 09:22:47;;;;;;;1999.90;999.90;;;;;;;16.51;48.35;98818.16;5063755;28;20048;-65
2021/03/26 09:25:19;;;;;;;1999.90;999.90;;;;;;;16.44;48.16;98825.50;5057123;28;20461;-66
2021/03/26 09:27:53;;;;;;;1999.90;999.90;;;;;;;16.71;46.89;98810.75;5066951;28;20052;-65
2021/03/26 09:30:25;;;;;;;1999.90;999.90;;;;;;;16.75;47.05;98819.25;5062061;28;20602;-66
2021/03/26 09:32:58;;;;;;;1999.90;999.90;;;;;;;16.96;47.03;98818.25;5063263;28;20083;-65
2021/03/26 09:35:29;;;;;;;1999.90;999.90;;;;;;;16.99;44.92;98817.53;5065538;28;20056;-66
2021/03/26 09:38:05;;;;;;;1999.90;999.90;;;;;;;16.03;46.80;98825.47;5057468;28;20044;-65
2021/03/26 09:40:43;;;;;;;1999.90;999.90;;;;;;;16.67;46.24;98814.59;5063568;28;20106;-65
2021/03/26 09:43:28;;;;;;;1999.90;999.90;;;;;;;16.83;45.50;98818.25;5063748;28;20148;-66
2021/03/26 09:46:02;;;;;;;1999.90;999.90;;;;;;;17.66;43.33;98819.66;5061752;28;20053;-65
2021/03/26 09:48:58;;;;;;;1999.90;999.90;;;;;;;17.69;42.92;98816.94;5065066;28;20401;-65
2021/03/26 09:51:38;;;;;;;1999.90;999.90;;;;;;;18.13;42.52;98813.16;5059695;28;20044;-65
2021/03/26 09:54:08;;;;;;;1999.90;999.90;;;;;;;17.11;42.58;98811.88;5064296;28;20055;-64
2021/03/26 09:56:53;;;;;;;1999.90;999.90;;;;;;;17.34;42.04;98808.44;5063777;28;20067;-65
2021/03/26 09:59:36;;;;;;;1999.90;999.90;;;;;;;17.04;42.22;98806.09;5056302;28;20052;-65
2021/03/26 10:02:12;;;;;;;1999.90;999.90;;;;;;;17.51;41.73;98810.91;5055875;28;20064;-65
2021/03/26 10:04:56;;;;;;;1999.90;999.90;;;;;;;17.39;41.73;98799.81;5059296;28;20113;-65
2021/03/26 10:07:35;;;;;;;1999.90;999.90;;;;;;;17.15;41.82;98801.59;5059688;28;20061;-66
2021/03/26 10:13:21;;;;;;;1999.90;999.90;;;;;;;16.70;43.00;98792.38;5064058;28;20565;-65
2021/03/26 10:15:58;;;;;;;1999.90;999.90;;;;;;;17.61;41.58;98795.53;5059621;28;20063;-66
2021/03/26 10:18:32;;;;;;;1999.90;999.90;;;;;;;17.91;40.30;98793.09;5064714;28;20041;-65
2021/03/26 10:21:01;;;;;;;1999.90;999.90;;;;;;;18.19;39.13;98794.94;5060604;28;20052;-65
2021/03/26 10:23:42;;;;;;;1999.90;999.90;;;;;;;18.47;39.10;98791.13;5066038;28;20053;-66
2021/03/26 10:26:18;;;;;;;1999.90;999.90;;;;;;;18.88;37.18;98785.97;5062351;28;20140;-66
2021/03/26 10:28:44;;;;;;;1999.90;999.90;;;;;;;19.75;36.36;98784.66;5060920;28;20040;-65
2021/03/26 10:31:15;;;;;;;1999.90;999.90;;;;;;;19.17;37.86;98778.91;5064218;28;20129;-65
2021/03/26 10:33:50;;;;;;;1999.90;999.90;;;;;;;19.76;35.54;98775.88;5055877;28;20132;-66
2021/03/26 10:36:49;;;;;;;1999.90;999.90;;;;;;;19.54;36.06;98780.31;5063370;28;20048;-66
2021/03/26 10:39:28;;;;;;;1999.90;999.90;;;;;;;19.44;36.31;98769.72;5061836;28;20052;-66
2021/03/26 10:42:07;;;;;;;1999.90;999.90;;;;;;;18.93;36.80;98779.25;5058117;28;20044;-66
2021/03/26 10:44:46;;;;;;;1999.90;999.90;;;;;;;19.45;35.86;98769.34;5057056;28;20060;-66
2021/03/26 10:47:23;;;;;;;1999.90;999.90;;;;;;;19.48;35.13;98768.59;5063142;28;20048;-66
2021/03/26 10:50:01;;;;;;;1999.90;999.90;;;;;;;19.62;34.19;98776.47;5054812;28;20056;-66
2021/03/26 10:52:36;;;;;;;1999.90;999.90;;;;;;;18.82;35.31;98774.22;5064190;28;20098;-66
2021/03/26 10:55:10;;;;;;;1999.90;999.90;;;;;;;19.17;35.59;98762.09;5056353;28;20143;-66
2021/03/26 10:57:46;;;;;;;1999.90;999.90;;;;;;;19.44;35.39;98759.34;5062588;28;20052;-66
2021/03/26 11:00:53;;;;;;;1999.90;999.90;;;;;;;19.11;34.59;98755.16;5061713;28;20056;-66
2021/03/26 11:03:25;;;;;;;1999.90;999.90;;;;;;;18.97;33.16;98750.13;5060887;28;20052;-66
2021/03/26 11:06:01;;;;;;;1999.90;999.90;;;;;;;19.67;32.97;98750.88;5065402;28;20503;-66
2021/03/26 11:08:27;;;;;;;1999.90;999.90;;;;;;;19.87;33.40;98748.00;5057056;28;20110;-66
2021/03/26 11:11:06;;;;;;;1999.90;999.90;;;;;;;19.73;32.58;98737.34;5065798;28;20052;-66
2021/03/26 11:14:06;;;;;;;1999.90;999.90;;;;;;;19.99;32.58;98739.38;5061926;28;20561;-64
2021/03/26 11:17:01;;;;;;;1999.90;999.90;;;;;;;20.17;33.95;98741.59;5056371;28;20506;-64
2021/03/26 11:19:43;;;;;;;1999.90;999.90;;;;;;;19.60;32.65;98738.75;5056466;28;20052;-65
2021/03/26 11:22:31;;;;;;;1999.90;999.90;;;;;;;19.56;33.30;98738.69;5062906;28;20110;-64
2021/03/26 11:25:08;;;;;;;1999.90;999.90;;;;;;;19.97;33.35;98741.72;5056820;28;20053;-65
2021/03/26 11:27:54;;;;;;;1999.90;999.90;;;;;;;20.70;31.40;98732.22;5065953;28;20130;-65
2021/03/26 11:30:29;;;;;;;1999.90;999.90;;;;;;;19.79;32.51;98735.06;5063398;28;20808;-64
2021/03/26 11:33:11;;;;;;;1999.90;999.90;;;;;;;20.21;31.27;98725.59;5057458;28;20457;-65
2021/03/26 11:35:41;;;;;;;1999.90;999.90;;;;;;;20.28;31.18;98724.91;5059405;28;20055;-65
2021/03/26 11:38:16;;;;;;;1999.90;999.90;;;;;;;20.17;31.56;98728.38;5059268;28;20072;-65
2021/03/26 11:41:06;;;;;;;1999.90;999.90;;;;;;;20.46;31.53;98723.09;5060512;28;20056;-64
2021/03/26 11:43:35;;;;;;;1999.90;999.90;;;;;;;20.26;31.08;98719.66;5062729;28;20060;-65
2021/03/26 11:46:06;;;;;;;1999.90;999.90;;;;;;;20.50;30.44;98723.13;5055975;28;20052;-65
2021/03/26 11:48:49;;;;;;;1999.90;999.90;;;;;;;20.71;29.99;98717.78;5063780;28;20048;-65
2021/03/26 11:51:33;;;;;;;1999.90;999.90;;;;;;;20.90;30.87;98707.53;5059524;28;20044;-65
2021/03/26 11:54:12;;;;;;;1999.90;999.90;;;;;;;21.09;29.45;98714.94;5058664;28;20054;-65